createdAt,value
2023-04-16T00:01:58.965Z,13.50
2023-04-16T00:04:25.374Z,14.07
2023-04-16T00:06:51.703Z,14.55
2023-04-16T00:09:18.016Z,12.80
2023-04-16T00:11:44.277Z,11.77
2023-04-16T00:14:10.483Z,13.80
2023-04-16T00:16:36.777Z,11.57
2023-04-16T00:19:03.099Z,13.65
2023-04-16T00:21:29.358Z,13.25
2023-04-16T00:23:55.562Z,11.30
2023-04-16T00:26:21.761Z,18.00
2023-04-16T00:28:48.007Z,10.43
2023-04-16T00:31:14.242Z,14.07
2023-04-16T00:33:40.565Z,12.60
2023-04-16T00:36:07.336Z,13.50
2023-04-16T00:38:33.603Z,14.68
2023-04-16T00:40:59.798Z,12.88
2023-04-16T00:43:26.631Z,18.40
2023-04-16T00:45:53.628Z,10.32
2023-04-16T00:48:20.930Z,12.27
2023-04-16T00:50:47.319Z,10.93
2023-04-16T00:53:14.237Z,12.23
2023-04-16T00:55:40.884Z,13.80
2023-04-16T00:58:07.146Z,13.40
2023-04-16T01:00:33.390Z,12.75
2023-04-16T01:03:00.375Z,13.82
2023-04-16T01:05:26.753Z,15.48
2023-04-16T01:07:53.008Z,14.55
2023-04-16T01:10:19.222Z,13.38
2023-04-16T01:12:45.496Z,16.02
2023-04-16T01:15:11.699Z,14.15
2023-04-16T01:17:38.039Z,14.25
2023-04-16T01:20:04.384Z,14.93
2023-04-16T01:22:30.731Z,15.93
2023-04-16T01:24:56.930Z,16.88
2023-04-16T01:27:23.175Z,15.07
2023-04-16T01:29:49.450Z,14.70
2023-04-16T01:32:15.835Z,18.08
2023-04-16T01:34:42.109Z,15.40
2023-04-16T01:37:08.444Z,16.25
2023-04-16T01:39:34.654Z,19.95
2023-04-16T01:42:01.275Z,15.32
2023-04-16T01:44:27.884Z,20.48
2023-04-16T01:46:54.526Z,14.93
2023-04-16T01:49:20.788Z,15.43
2023-04-16T01:51:47.109Z,18.02
2023-04-16T01:54:13.295Z,16.88
2023-04-16T01:56:39.567Z,15.07
2023-04-16T01:59:05.785Z,19.60
2023-04-16T02:01:32.479Z,14.75
2023-04-16T02:03:58.942Z,13.88
2023-04-16T02:06:27.262Z,15.30
2023-04-16T02:08:53.462Z,17.85
2023-04-16T02:11:19.674Z,20.25
2023-04-16T02:13:45.894Z,17.02
2023-04-16T02:16:12.117Z,17.80
2023-04-16T02:18:38.372Z,16.52
2023-04-16T02:21:06.324Z,16.80
2023-04-16T02:23:32.631Z,20.20
2023-04-16T02:25:58.827Z,17.40
2023-04-16T02:28:25.145Z,16.40
2023-04-16T02:30:51.333Z,22.35
2023-04-16T02:33:17.545Z,18.52
2023-04-16T02:35:43.784Z,18.48
2023-04-16T02:38:10.037Z,19.50
2023-04-16T02:40:36.354Z,17.60
2023-04-16T02:43:02.655Z,22.40
2023-04-16T02:45:28.874Z,24.27
2023-04-16T02:47:55.162Z,16.05
2023-04-16T02:50:21.417Z,19.65
2023-04-16T02:52:47.682Z,24.23
2023-04-16T02:55:13.958Z,18.02
2023-04-16T02:57:40.691Z,22.30
2023-04-16T03:00:07.612Z,17.02
2023-04-16T03:02:33.950Z,21.58
2023-04-16T03:05:00.268Z,19.35
2023-04-16T03:07:26.476Z,18.13
2023-04-16T03:09:52.736Z,20.23
2023-04-16T03:12:18.977Z,20.88
2023-04-16T03:14:45.212Z,22.13
2023-04-16T03:17:11.488Z,24.67
2023-04-16T03:19:37.713Z,18.67
2023-04-16T03:22:04.156Z,21.33
2023-04-16T03:24:30.424Z,18.73
2023-04-16T03:26:57.465Z,20.83
2023-04-16T03:29:23.673Z,21.65
2023-04-16T03:31:49.967Z,26.85
2023-04-16T03:34:16.213Z,26.05
2023-04-16T03:36:42.444Z,25.65
2023-04-16T03:39:08.922Z,29.95
2023-04-16T03:41:35.257Z,28.25
2023-04-16T03:44:01.480Z,23.38
2023-04-16T03:46:27.767Z,26.42
2023-04-16T03:48:54.043Z,23.23
2023-04-16T03:51:20.422Z,23.65
2023-04-16T03:53:46.618Z,23.90
2023-04-16T03:56:12.823Z,21.70
2023-04-16T03:58:39.014Z,23.67
2023-04-16T04:01:05.367Z,23.52
2023-04-16T04:03:31.713Z,24.95
2023-04-16T04:05:58.166Z,28.58
2023-04-16T04:08:24.421Z,27.23
2023-04-16T04:10:51.113Z,27.08
2023-04-16T04:13:17.340Z,28.13
2023-04-16T04:15:44.168Z,26.38
2023-04-16T04:18:10.620Z,26.85
2023-04-16T04:20:39.712Z,23.85
2023-04-16T04:23:05.976Z,23.88
2023-04-16T04:25:32.262Z,27.10
2023-04-16T04:27:58.486Z,25.10
2023-04-16T04:30:24.706Z,30.63
2023-04-16T04:32:51.048Z,31.23
2023-04-16T04:35:17.339Z,27.70
2023-04-16T04:37:43.611Z,27.23
2023-04-16T04:40:09.997Z,48.63
2023-04-16T04:42:38.359Z,29.67
2023-04-16T04:45:05.051Z,35.03
2023-04-16T04:47:31.286Z,33.05
2023-04-16T04:49:57.530Z,32.05
2023-04-16T04:52:23.757Z,29.42
2023-04-16T04:54:49.982Z,27.92
2023-04-16T04:57:16.289Z,32.75
2023-04-16T04:59:42.493Z,32.58
2023-04-16T05:02:08.803Z,28.98
2023-04-16T05:04:35.088Z,26.85
2023-04-16T05:07:02.300Z,29.77
2023-04-16T05:09:28.515Z,30.83
2023-04-16T05:11:54.731Z,28.60
2023-04-16T05:14:20.966Z,28.20
2023-04-16T05:16:47.251Z,34.17
2023-04-16T05:19:13.471Z,28.30
2023-04-16T05:21:39.898Z,27.65
2023-04-16T05:24:06.196Z,31.02
2023-04-16T05:26:32.554Z,29.35
2023-04-16T05:28:58.800Z,26.50
2023-04-16T05:31:25.032Z,28.58
2023-04-16T05:33:51.277Z,28.33
2023-04-16T05:36:17.512Z,25.17
2023-04-16T05:38:43.699Z,23.98
2023-04-16T05:41:09.947Z,30.10
2023-04-16T05:43:36.237Z,28.70
2023-04-16T05:46:02.521Z,24.45
2023-04-16T05:48:28.741Z,27.35
2023-04-16T05:50:55.029Z,32.05
2023-04-16T05:53:21.253Z,28.17
2023-04-16T05:55:47.459Z,25.83
2023-04-16T05:58:13.742Z,26.48
2023-04-16T06:00:40.569Z,24.58
2023-04-16T06:03:06.944Z,25.88
2023-04-16T06:05:33.587Z,24.48
2023-04-16T06:07:59.839Z,23.92
2023-04-16T06:10:26.179Z,27.85
2023-04-16T06:12:52.456Z,26.35
2023-04-16T06:15:18.719Z,28.45
2023-04-16T06:17:45.043Z,30.50
2023-04-16T06:20:11.780Z,29.35
2023-04-16T06:22:38.001Z,33.13
2023-04-16T06:25:04.421Z,26.05
2023-04-16T06:27:31.112Z,28.65
2023-04-16T06:29:57.437Z,24.38
2023-04-16T06:32:23.747Z,25.85
2023-04-16T06:34:50.145Z,26.77
2023-04-16T06:37:16.447Z,24.25
2023-04-16T06:39:42.689Z,23.52
2023-04-16T06:42:08.910Z,24.90
2023-04-16T06:44:35.438Z,25.05
2023-04-16T06:47:01.700Z,24.30
2023-04-16T06:49:28.028Z,24.95
2023-04-16T06:51:54.302Z,23.65
2023-04-16T06:54:20.588Z,24.83
2023-04-16T06:56:46.847Z,22.08
2023-04-16T06:59:13.032Z,23.80
2023-04-16T07:01:39.269Z,21.50
2023-04-16T07:04:05.735Z,20.05
2023-04-16T07:06:32.427Z,23.60
2023-04-16T07:08:58.625Z,23.27
2023-04-16T07:11:25.801Z,19.05
2023-04-16T07:13:53.727Z,20.38
2023-04-16T07:16:19.976Z,17.83
2023-04-16T07:18:46.475Z,20.75
2023-04-16T07:21:12.712Z,17.85
2023-04-16T07:23:38.897Z,18.80
2023-04-16T07:26:05.309Z,19.98
2023-04-16T07:28:31.567Z,16.70
2023-04-16T07:30:57.881Z,18.40
2023-04-16T07:33:24.273Z,19.85
2023-04-16T07:35:51.249Z,18.75
2023-04-16T07:38:17.462Z,17.35
2023-04-16T07:40:43.734Z,21.70
2023-04-16T07:43:10.069Z,20.17
2023-04-16T07:45:36.311Z,20.27
2023-04-16T07:48:02.653Z,20.27
2023-04-16T07:50:28.938Z,18.85
2023-04-16T07:52:55.209Z,20.08
2023-04-16T07:55:21.500Z,24.02
2023-04-16T07:57:47.788Z,24.30
2023-04-16T08:00:14.264Z,25.25
2023-04-16T08:02:41.188Z,23.58
2023-04-16T08:05:07.629Z,28.70
2023-04-16T08:07:34.835Z,29.08
2023-04-16T08:10:01.289Z,33.67
2023-04-16T08:12:27.525Z,33.25
2023-04-16T08:14:53.813Z,35.92
2023-04-16T08:17:20.122Z,35.28
2023-04-16T08:19:46.362Z,36.40
2023-04-16T08:22:13.042Z,39.53
2023-04-16T08:24:39.558Z,40.15
2023-04-16T08:27:17.868Z,45.72
2023-04-16T08:29:45.743Z,48.13
2023-04-16T08:32:12.003Z,47.03
2023-04-16T08:34:38.311Z,47.63
2023-04-16T08:37:04.507Z,50.30
2023-04-16T08:39:30.779Z,49.97
2023-04-16T08:41:58.267Z,48.47
2023-04-16T08:44:28.617Z,50.90
2023-04-16T08:46:59.053Z,46.85
2023-04-16T08:49:25.960Z,44.47
2023-04-16T08:51:53.663Z,44.72
2023-04-16T08:54:36.542Z,44.45
2023-04-16T08:57:05.462Z,41.67
2023-04-16T08:59:31.902Z,38.80
2023-04-16T09:01:59.178Z,44.38
2023-04-16T09:04:29.199Z,40.80
2023-04-16T09:06:57.290Z,35.72
2023-04-16T09:09:23.651Z,38.88
2023-04-16T09:11:53.554Z,35.10
2023-04-16T09:14:20.106Z,37.80
2023-04-16T09:16:47.505Z,36.13
2023-04-16T09:19:14.444Z,39.92
2023-04-16T09:21:41.549Z,43.15
2023-04-16T09:24:08.707Z,43.30
2023-04-16T09:26:35.488Z,44.88
2023-04-16T09:29:02.054Z,46.45
2023-04-16T09:31:28.301Z,47.80
2023-04-16T09:34:05.535Z,43.80
2023-04-16T09:36:32.638Z,46.33
2023-04-16T09:38:59.284Z,44.45
2023-04-16T09:41:29.347Z,46.90
2023-04-16T09:43:56.478Z,42.67
2023-04-16T09:46:23.393Z,45.88
2023-04-16T09:48:49.686Z,42.88
2023-04-16T09:51:16.271Z,39.70
2023-04-16T09:53:42.487Z,37.97
2023-04-16T09:56:08.809Z,38.78
2023-04-16T09:58:41.668Z,39.33
2023-04-16T10:01:10.422Z,36.15
2023-04-16T10:03:38.290Z,35.92
2023-04-16T10:06:09.591Z,33.05
2023-04-16T10:08:36.196Z,34.17
2023-04-16T10:11:02.575Z,35.50
2023-04-16T10:13:30.889Z,32.78
2023-04-16T10:15:57.633Z,32.28
2023-04-16T10:18:23.811Z,33.60
2023-04-16T10:20:50.672Z,32.15
2023-04-16T10:23:17.074Z,31.45
2023-04-16T10:25:45.171Z,30.55
2023-04-16T10:28:12.638Z,36.00
2023-04-16T10:30:39.392Z,31.95
2023-04-16T10:33:06.028Z,34.15
2023-04-16T10:35:32.245Z,30.88
2023-04-16T10:38:18.406Z,37.42
2023-04-16T10:40:44.846Z,34.15
2023-04-16T10:43:16.995Z,32.13
2023-04-16T10:45:43.489Z,36.28
2023-04-16T10:48:09.940Z,35.65
2023-04-16T10:50:36.810Z,38.28
2023-04-16T10:53:20.149Z,37.17
2023-04-16T10:55:58.675Z,37.97
2023-04-16T10:58:31.702Z,40.85
2023-04-16T11:01:01.389Z,37.05
2023-04-16T11:03:31.778Z,42.47
2023-04-16T11:06:17.598Z,42.80
2023-04-16T11:08:53.978Z,46.10
2023-04-16T11:11:21.422Z,41.33
2023-04-16T11:13:47.604Z,38.47
2023-04-16T11:16:14.690Z,37.30
2023-04-16T11:18:43.181Z,33.15
2023-04-16T11:21:17.790Z,43.03
2023-04-16T11:23:51.434Z,37.03
2023-04-16T11:26:33.077Z,38.60
2023-04-16T11:29:00.163Z,41.30
2023-04-16T11:31:27.416Z,38.67
2023-04-16T11:33:59.281Z,40.78
2023-04-16T11:36:27.599Z,36.33
2023-04-16T11:39:00.862Z,33.20
2023-04-16T11:41:27.084Z,37.60
2023-04-16T11:43:53.333Z,31.52
2023-04-16T11:46:27.482Z,41.17
2023-04-16T11:48:55.417Z,35.97
2023-04-16T11:51:23.129Z,35.63
2023-04-16T11:53:53.162Z,35.65
2023-04-16T11:56:27.433Z,33.40
2023-04-16T11:59:13.381Z,34.10
2023-04-16T12:01:43.411Z,34.50
2023-04-16T12:04:09.925Z,36.13
2023-04-16T12:06:36.664Z,33.72
2023-04-16T12:09:21.410Z,33.13
2023-04-16T12:11:47.609Z,37.72
2023-04-16T12:14:13.959Z,34.92
2023-04-16T12:16:40.259Z,37.90
2023-04-16T12:19:06.872Z,33.35
2023-04-16T12:21:39.860Z,36.92
2023-04-16T12:24:07.302Z,32.13
2023-04-16T12:26:37.525Z,33.33
2023-04-16T12:29:19.321Z,34.47
2023-04-16T12:31:46.366Z,35.00
2023-04-16T12:34:14.984Z,33.55
2023-04-16T12:36:41.798Z,34.40
2023-04-16T12:39:08.193Z,31.52
2023-04-16T12:41:36.838Z,27.25
2023-04-16T12:44:12.409Z,31.13
2023-04-16T12:46:39.331Z,31.20
2023-04-16T12:49:05.740Z,28.63
2023-04-16T12:51:32.993Z,28.17
2023-04-16T12:53:59.720Z,27.50
2023-04-16T12:56:26.348Z,24.92
2023-04-16T12:58:52.738Z,25.60
2023-04-16T13:01:19.389Z,24.95
2023-04-16T13:03:46.214Z,24.85
2023-04-16T13:06:13.025Z,21.67
2023-04-16T13:08:39.584Z,25.35
2023-04-16T13:11:06.283Z,18.30
2023-04-16T13:13:32.732Z,20.15
2023-04-16T13:15:59.097Z,24.10
2023-04-16T13:18:26.190Z,23.45
2023-04-16T13:20:53.019Z,21.55
2023-04-16T13:23:19.338Z,19.50
2023-04-16T13:25:45.695Z,21.13
2023-04-16T13:28:11.926Z,17.67
2023-04-16T13:30:38.192Z,19.38
2023-04-16T13:33:04.431Z,17.77
2023-04-16T13:35:30.861Z,19.23
2023-04-16T13:37:57.057Z,20.08
2023-04-16T13:40:23.267Z,16.92
2023-04-16T13:42:49.511Z,17.38
2023-04-16T13:45:15.873Z,17.20
2023-04-16T13:47:43.335Z,17.23
2023-04-16T13:50:10.257Z,15.68
2023-04-16T13:52:36.481Z,15.40
2023-04-16T13:55:03.139Z,15.70
2023-04-16T13:57:29.534Z,16.48
2023-04-16T13:59:56.104Z,14.88
2023-04-16T14:02:22.610Z,15.82
2023-04-16T14:04:48.989Z,15.70
2023-04-16T14:07:15.456Z,17.10
2023-04-16T14:09:41.825Z,16.30
2023-04-16T14:12:08.188Z,17.75
2023-04-16T14:14:34.927Z,15.93
2023-04-16T14:17:01.569Z,16.27
2023-04-16T14:19:27.812Z,15.18
2023-04-16T14:21:54.337Z,16.10
2023-04-16T14:24:20.710Z,16.77
2023-04-16T14:26:46.934Z,19.92
2023-04-16T14:29:13.129Z,16.95
2023-04-16T14:31:39.382Z,15.45
2023-04-16T14:34:05.613Z,16.33
2023-04-16T14:36:31.838Z,17.25
2023-04-16T14:38:58.024Z,16.80
2023-04-16T14:41:25.109Z,15.98
2023-04-16T14:43:51.403Z,15.82
2023-04-16T14:46:17.854Z,16.00
2023-04-16T14:48:44.337Z,14.85
2023-04-16T14:51:10.797Z,16.73
2023-04-16T14:53:37.567Z,16.27
2023-04-16T14:56:04.153Z,14.52
2023-04-16T14:58:31.098Z,14.85
2023-04-16T15:01:00.660Z,15.07
2023-04-16T15:03:27.331Z,15.15
2023-04-16T15:05:56.476Z,15.52
2023-04-16T15:08:23.198Z,16.10
2023-04-16T15:10:50.033Z,16.90
2023-04-16T15:13:16.472Z,14.05
2023-04-16T15:15:43.459Z,14.85
2023-04-16T15:18:09.749Z,16.02
2023-04-16T15:20:36.009Z,17.40
2023-04-16T15:23:02.739Z,17.98
2023-04-16T15:25:29.072Z,17.23
2023-04-16T15:27:55.802Z,15.98
2023-04-16T15:30:22.084Z,19.63
2023-04-16T15:32:48.412Z,17.00
2023-04-16T15:35:14.711Z,16.38
2023-04-16T15:37:41.063Z,16.08
2023-04-16T15:40:08.335Z,17.20
2023-04-16T15:42:34.634Z,14.55
2023-04-16T15:45:01.376Z,14.00
2023-04-16T15:47:27.738Z,14.30
2023-04-16T15:49:54.024Z,16.15
2023-04-16T15:52:20.329Z,15.63
2023-04-16T15:54:46.548Z,15.00
2023-04-16T15:57:12.764Z,14.00
2023-04-16T15:59:39.005Z,15.40
2023-04-16T16:02:05.825Z,17.05
2023-04-16T16:04:32.495Z,14.32
2023-04-16T16:06:58.768Z,15.95
2023-04-16T16:09:28.046Z,15.23
2023-04-16T16:11:54.940Z,13.75
2023-04-16T16:14:21.659Z,15.43
2023-04-16T16:16:47.862Z,15.00
2023-04-16T16:19:14.350Z,16.33
2023-04-16T16:21:40.917Z,15.38
2023-04-16T16:24:07.601Z,13.90
2023-04-16T16:26:33.828Z,13.25
2023-04-16T16:29:01.273Z,15.98
2023-04-16T16:31:27.545Z,14.05
2023-04-16T16:33:53.750Z,14.55
2023-04-16T16:36:19.996Z,14.93
2023-04-16T16:38:47.303Z,14.80
2023-04-16T16:41:13.558Z,16.30
2023-04-16T16:43:39.892Z,13.82
2023-04-16T16:46:07.338Z,15.60
2023-04-16T16:48:33.584Z,13.57
2023-04-16T16:50:59.788Z,13.52
2023-04-16T16:53:26.082Z,14.15
2023-04-16T16:55:52.323Z,14.13
2023-04-16T16:58:18.613Z,15.95
2023-04-16T17:00:44.859Z,14.43
2023-04-16T17:03:11.483Z,19.33
2023-04-16T17:05:37.909Z,15.90
2023-04-16T17:08:04.224Z,14.98
2023-04-16T17:10:30.561Z,17.45
2023-04-16T17:12:57.224Z,16.73
2023-04-16T17:15:23.492Z,20.77
2023-04-16T17:17:49.863Z,24.85
2023-04-16T17:20:16.235Z,28.30
2023-04-16T17:22:42.537Z,28.67
2023-04-16T17:25:08.971Z,24.40
2023-04-16T17:27:35.225Z,29.45
2023-04-16T17:30:01.861Z,32.30
2023-04-16T17:32:28.669Z,25.13
2023-04-16T17:34:55.816Z,26.20
2023-04-16T17:37:22.448Z,28.00
2023-04-16T17:39:48.839Z,27.23
2023-04-16T17:42:15.237Z,24.65
2023-04-16T17:44:41.532Z,26.17
2023-04-16T17:47:07.734Z,26.13
2023-04-16T17:49:33.964Z,24.63
2023-04-16T17:52:00.403Z,28.15
2023-04-16T17:54:26.634Z,27.20
2023-04-16T17:56:52.880Z,27.85
2023-04-16T17:59:19.084Z,25.85
2023-04-16T18:01:45.434Z,29.33
2023-04-16T18:04:12.174Z,25.92
2023-04-16T18:06:38.757Z,28.70
2023-04-16T18:09:05.648Z,25.77
2023-04-16T18:11:32.033Z,25.50
2023-04-16T18:13:58.335Z,26.90
2023-04-16T18:16:24.615Z,25.67
2023-04-16T18:18:50.862Z,27.08
2023-04-16T18:21:17.077Z,29.02
2023-04-16T18:23:43.328Z,28.95
2023-04-16T18:26:11.054Z,27.95
2023-04-16T18:28:37.647Z,28.58
2023-04-16T18:31:06.497Z,26.35
2023-04-16T18:36:02.271Z,28.55
2023-04-16T18:38:30.377Z,28.98
2023-04-16T18:40:56.814Z,30.65
2023-04-16T18:43:23.864Z,28.83
2023-04-16T18:45:50.142Z,28.25
2023-04-16T18:48:16.418Z,32.83
2023-04-16T18:50:42.640Z,32.25
2023-04-16T18:53:08.831Z,27.55
2023-04-16T18:55:35.096Z,28.33
2023-04-16T18:58:01.516Z,29.52
2023-04-16T19:00:27.886Z,33.10
2023-04-16T19:02:54.185Z,29.73
2023-04-16T19:05:21.492Z,29.10
2023-04-16T19:07:48.095Z,30.65
2023-04-16T19:10:14.319Z,27.83
2023-04-16T19:12:40.785Z,24.58
2023-04-16T19:15:07.261Z,33.47
2023-04-16T19:17:33.515Z,30.10
2023-04-16T19:19:59.767Z,31.83
2023-04-16T19:22:26.136Z,25.48
2023-04-16T19:24:52.388Z,31.05
2023-04-16T19:27:18.612Z,27.25
2023-04-16T19:29:46.666Z,34.08
2023-04-16T19:32:14.189Z,29.63
2023-04-16T19:34:40.697Z,25.67
2023-04-16T19:37:06.957Z,30.90
2023-04-16T19:39:33.175Z,28.88
2023-04-16T19:41:59.494Z,29.40
2023-04-16T19:44:27.479Z,29.70
2023-04-16T19:46:53.733Z,30.40
2023-04-16T19:49:20.145Z,26.35
2023-04-16T19:51:46.410Z,27.73
2023-04-16T19:54:13.188Z,29.92
2023-04-16T19:56:39.410Z,29.83
2023-04-16T19:59:05.668Z,30.80
2023-04-16T20:01:31.914Z,35.22
2023-04-16T20:03:58.207Z,29.73
2023-04-16T20:06:25.195Z,28.90
2023-04-16T20:08:51.412Z,33.33
2023-04-16T20:11:17.668Z,27.95
2023-04-16T20:13:47.407Z,30.88
2023-04-16T20:16:13.890Z,30.35
2023-04-16T20:18:43.367Z,29.10
2023-04-16T20:21:09.952Z,32.00
2023-04-16T20:23:36.166Z,30.23
2023-04-16T20:26:02.470Z,31.52
2023-04-16T20:28:28.717Z,32.05
2023-04-16T20:30:54.962Z,31.52
2023-04-16T20:33:21.238Z,31.05
2023-04-16T20:35:47.500Z,27.00
2023-04-16T20:38:13.814Z,32.75
2023-04-16T20:40:40.026Z,34.67
2023-04-16T20:43:09.995Z,28.85
2023-04-16T20:45:40.688Z,34.97
2023-04-16T20:48:07.293Z,31.27
2023-04-16T20:50:33.780Z,28.95
2023-04-16T20:52:59.962Z,27.80
2023-04-16T20:55:26.502Z,33.08
2023-04-16T20:57:52.701Z,29.17
2023-04-16T21:00:19.012Z,31.25
2023-04-16T21:02:45.379Z,30.08
2023-04-16T21:05:14.465Z,28.42
2023-04-16T21:07:41.693Z,32.38
2023-04-16T21:10:11.149Z,29.08
2023-04-16T21:12:37.461Z,28.65
2023-04-16T21:15:04.153Z,27.13
2023-04-16T21:17:30.507Z,30.95
2023-04-16T21:19:56.872Z,25.73
2023-04-16T21:22:23.207Z,28.83
2023-04-16T21:24:49.432Z,26.88
2023-04-16T21:27:15.635Z,31.67
2023-04-16T21:29:41.868Z,27.35
2023-04-16T21:32:08.077Z,30.15
2023-04-16T21:34:34.357Z,31.00
2023-04-16T21:37:00.581Z,27.80
2023-04-16T21:39:30.745Z,26.90
2023-04-16T21:41:57.595Z,30.98
2023-04-16T21:44:23.853Z,33.95
2023-04-16T21:46:50.122Z,31.88
2023-04-16T21:49:16.525Z,28.33
2023-04-16T21:51:42.972Z,26.48
2023-04-16T21:54:09.163Z,29.38
2023-04-16T21:56:35.387Z,32.70
2023-04-16T21:59:01.745Z,30.33
2023-04-16T22:01:28.145Z,29.40
2023-04-16T22:03:54.573Z,27.73
2023-04-16T22:06:20.887Z,30.83
2023-04-16T22:08:49.595Z,26.55
2023-04-16T22:11:15.868Z,34.17
2023-04-16T22:13:42.311Z,30.92
2023-04-16T22:16:11.372Z,30.63
2023-04-16T22:18:38.582Z,31.15
2023-04-16T22:21:05.070Z,27.40
2023-04-16T22:23:31.344Z,30.67
2023-04-16T22:25:57.581Z,29.25
2023-04-16T22:28:23.782Z,28.25
2023-04-16T22:30:50.451Z,29.13
2023-04-16T22:33:16.719Z,33.08
2023-04-16T22:35:43.027Z,32.33
2023-04-16T22:38:09.989Z,28.05
2023-04-16T22:40:36.241Z,30.80
2023-04-16T22:43:02.450Z,29.70
2023-04-16T22:45:28.791Z,34.13
2023-04-16T22:47:55.100Z,34.35
2023-04-16T22:50:22.462Z,37.08
2023-04-16T22:52:48.666Z,35.85
2023-04-16T22:55:14.880Z,33.78
2023-04-16T22:57:41.200Z,32.95
2023-04-16T23:00:13.871Z,32.30
2023-04-16T23:02:40.151Z,35.08
2023-04-16T23:05:06.761Z,32.95
2023-04-16T23:07:32.976Z,39.38
2023-04-16T23:09:59.202Z,40.58
2023-04-16T23:12:25.423Z,34.60
2023-04-16T23:14:53.028Z,40.40
2023-04-16T23:17:19.259Z,41.35
2023-04-16T23:19:45.481Z,41.90
2023-04-16T23:22:11.744Z,39.25
2023-04-16T23:24:37.983Z,39.53
2023-04-16T23:27:04.204Z,41.58
2023-04-16T23:29:30.456Z,42.35
2023-04-16T23:31:58.298Z,42.35
2023-04-16T23:34:25.875Z,40.28
2023-04-16T23:36:52.149Z,43.95
2023-04-16T23:39:18.335Z,43.58
2023-04-16T23:41:44.864Z,43.80
2023-04-16T23:44:11.070Z,42.30
2023-04-16T23:46:38.802Z,46.25
2023-04-16T23:49:05.357Z,45.47
2023-04-16T23:51:31.592Z,49.40
2023-04-16T23:53:57.797Z,45.72
2023-04-16T23:56:24.079Z,47.40
2023-04-16T23:58:50.316Z,44.80
